createdAt,value
2017-11-07T00:01:48.959Z,11.61
2017-11-07T00:03:50.628Z,11.63
2017-11-07T00:05:52.477Z,11.63
2017-11-07T00:07:54.522Z,11.57
2017-11-07T00:09:56.448Z,11.60
2017-11-07T00:11:58.600Z,11.61
2017-11-07T00:14:00.619Z,11.60
2017-11-07T00:16:02.516Z,11.57
2017-11-07T00:18:04.654Z,11.54
2017-11-07T00:20:06.733Z,11.56
2017-11-07T00:22:08.579Z,11.53
2017-11-07T00:24:10.246Z,11.55
2017-11-07T00:26:11.974Z,11.51
2017-11-07T00:28:13.526Z,11.46
2017-11-07T00:30:15.396Z,11.49
2017-11-07T00:32:17.251Z,11.47
2017-11-07T00:34:19.213Z,11.43
2017-11-07T00:36:20.774Z,11.47
2017-11-07T00:38:22.533Z,11.42
2017-11-07T00:40:23.976Z,11.43
2017-11-07T00:42:25.933Z,11.41
2017-11-07T00:44:31.074Z,11.43
2017-11-07T00:46:32.922Z,11.43
2017-11-07T00:48:35.047Z,11.43
2017-11-07T00:50:36.805Z,11.42
2017-11-07T00:52:38.491Z,11.42
2017-11-07T00:54:40.334Z,11.43
2017-11-07T00:56:42.094Z,11.40
2017-11-07T00:58:44.290Z,11.40
2017-11-07T01:00:46.134Z,11.36
2017-11-07T01:02:47.894Z,11.41
2017-11-07T01:04:49.656Z,11.40
2017-11-07T01:06:51.514Z,11.37
2017-11-07T01:08:53.331Z,11.34
2017-11-07T01:10:55.318Z,11.36
2017-11-07T01:12:57.172Z,11.33
2017-11-07T01:14:58.927Z,11.37
2017-11-07T01:17:00.684Z,11.35
2017-11-07T01:19:02.533Z,11.35
2017-11-07T01:21:04.146Z,11.35
2017-11-07T01:23:05.922Z,11.34
2017-11-07T01:25:07.722Z,11.29
2017-11-07T01:27:09.567Z,11.29
2017-11-07T01:29:11.328Z,11.26
2017-11-07T01:31:14.210Z,11.27
2017-11-07T01:33:16.081Z,11.26
2017-11-07T01:35:17.923Z,11.28
2017-11-07T01:37:19.842Z,11.26
2017-11-07T01:39:21.646Z,11.23
2017-11-07T01:41:23.397Z,11.22
2017-11-07T01:43:25.131Z,11.25
2017-11-07T01:45:27.330Z,11.20
2017-11-07T01:47:29.164Z,11.18
2017-11-07T01:49:31.012Z,11.23
2017-11-07T01:51:32.890Z,11.20
2017-11-07T01:53:34.643Z,11.18
2017-11-07T01:55:36.576Z,11.18
2017-11-07T01:57:38.363Z,11.18
2017-11-07T01:59:40.121Z,11.16
2017-11-07T02:01:41.875Z,11.16
2017-11-07T02:03:43.929Z,11.10
2017-11-07T02:05:45.683Z,11.14
2017-11-07T02:07:47.534Z,11.10
2017-11-07T02:09:49.314Z,11.15
2017-11-07T02:11:51.161Z,11.11
2017-11-07T02:13:52.882Z,11.12
2017-11-07T02:15:54.657Z,11.10
2017-11-07T02:17:56.414Z,11.07
2017-11-07T02:19:58.159Z,11.08
2017-11-07T02:21:59.920Z,11.07
2017-11-07T02:24:01.696Z,11.10
2017-11-07T02:26:03.740Z,11.05
2017-11-07T02:28:05.525Z,11.07
2017-11-07T02:30:07.569Z,11.09
2017-11-07T02:32:09.328Z,11.07
2017-11-07T02:34:11.085Z,11.09
2017-11-07T02:36:12.840Z,11.08
2017-11-07T02:38:14.589Z,11.11
2017-11-07T02:40:16.641Z,11.11
2017-11-07T02:42:18.404Z,11.14
2017-11-07T02:44:20.163Z,11.13
2017-11-07T02:46:22.433Z,11.12
2017-11-07T02:48:24.197Z,11.11
2017-11-07T02:50:26.128Z,11.09
2017-11-07T02:52:27.797Z,11.11
2017-11-07T02:54:29.555Z,11.06
2017-11-07T02:56:31.286Z,11.06
2017-11-07T02:58:33.042Z,11.09
2017-11-07T03:00:34.808Z,11.03
2017-11-07T03:02:36.779Z,11.06
2017-11-07T03:04:38.618Z,11.06
2017-11-07T03:06:40.288Z,11.04
2017-11-07T03:08:41.929Z,11.01
2017-11-07T03:10:43.804Z,11.02
2017-11-07T03:12:45.444Z,11.04
2017-11-07T03:14:47.403Z,10.98
2017-11-07T03:16:49.060Z,11.00
2017-11-07T03:18:50.813Z,11.01
2017-11-07T03:20:52.799Z,10.99
2017-11-07T03:22:54.650Z,10.99
2017-11-07T03:24:56.488Z,10.94
2017-11-07T03:26:58.250Z,10.94
2017-11-07T03:28:59.865Z,10.95
2017-11-07T03:31:01.637Z,10.89
2017-11-07T03:33:03.410Z,10.90
2017-11-07T03:35:05.171Z,10.90
2017-11-07T03:37:06.838Z,10.92
2017-11-07T03:39:08.657Z,10.92
2017-11-07T03:41:10.491Z,10.87
2017-11-07T03:43:12.315Z,10.83
2017-11-07T03:45:14.138Z,10.83
2017-11-07T03:47:16.820Z,10.83
2017-11-07T03:49:18.574Z,10.79
2017-11-07T03:51:20.322Z,10.75
2017-11-07T03:53:22.089Z,10.75
2017-11-07T03:55:23.854Z,10.77
2017-11-07T03:57:25.601Z,10.76
2017-11-07T03:59:27.253Z,10.76
2017-11-07T04:01:29.006Z,10.72
2017-11-07T04:03:30.758Z,10.75
2017-11-07T04:05:32.612Z,10.72
2017-11-07T04:07:34.449Z,10.71
2017-11-07T04:09:36.232Z,10.69
2017-11-07T04:11:37.784Z,10.64
2017-11-07T04:13:39.634Z,10.66
2017-11-07T04:15:41.494Z,10.64
2017-11-07T04:17:43.097Z,10.68
2017-11-07T04:19:45.016Z,10.66
2017-11-07T04:21:46.961Z,10.66
2017-11-07T04:23:48.840Z,10.62
2017-11-07T04:25:50.484Z,10.61
2017-11-07T04:27:52.363Z,10.60
2017-11-07T04:29:54.093Z,10.61
2017-11-07T04:31:55.880Z,10.62
2017-11-07T04:33:57.806Z,10.58
2017-11-07T04:35:59.570Z,10.59
2017-11-07T04:38:02.084Z,10.57
2017-11-07T04:40:03.890Z,10.59
2017-11-07T04:42:05.646Z,10.57
2017-11-07T04:44:07.722Z,10.56
2017-11-07T04:46:09.774Z,10.55
2017-11-07T04:48:11.527Z,10.53
2017-11-07T04:50:13.292Z,10.50
2017-11-07T04:52:15.174Z,10.48
2017-11-07T04:54:17.004Z,10.55
2017-11-07T04:56:19.082Z,10.53
2017-11-07T04:58:21.130Z,10.51
2017-11-07T05:00:24.726Z,10.52
2017-11-07T05:02:26.495Z,10.46
2017-11-07T05:04:28.847Z,10.50
2017-11-07T05:06:30.524Z,10.43
2017-11-07T05:08:32.394Z,10.43
2017-11-07T05:10:34.168Z,10.45
2017-11-07T05:12:36.294Z,10.44
2017-11-07T05:14:38.139Z,10.41
2017-11-07T05:16:40.044Z,10.39
2017-11-07T05:18:42.295Z,10.41
2017-11-07T05:20:44.130Z,10.41
2017-11-07T05:22:45.888Z,10.39
2017-11-07T05:24:47.957Z,10.37
2017-11-07T05:26:50.009Z,10.37
2017-11-07T05:28:51.978Z,10.35
2017-11-07T05:30:53.842Z,10.36
2017-11-07T05:32:55.897Z,10.32
2017-11-07T05:34:57.865Z,10.31
2017-11-07T05:36:59.589Z,10.31
2017-11-07T05:39:01.295Z,10.32
2017-11-07T05:41:03.414Z,10.33
2017-11-07T05:43:06.164Z,10.32
2017-11-07T05:45:08.169Z,10.32
2017-11-07T05:47:11.484Z,10.28
2017-11-07T05:49:13.905Z,10.34
2017-11-07T05:51:15.679Z,10.31
2017-11-07T05:53:17.436Z,10.39
2017-11-07T05:55:21.329Z,10.38
2017-11-07T05:57:23.091Z,10.42
2017-11-07T05:59:24.968Z,10.43
2017-11-07T06:01:28.188Z,10.39
2017-11-07T06:05:44.260Z,10.47
2017-11-07T06:07:46.105Z,10.46
2017-11-07T06:09:47.748Z,10.42
2017-11-07T06:11:50.742Z,10.37
2017-11-07T06:13:56.211Z,10.40
2017-11-07T06:15:58.146Z,10.38
2017-11-07T06:18:02.793Z,10.40
2017-11-07T06:20:04.829Z,10.42
2017-11-07T06:22:06.680Z,10.44
2017-11-07T06:26:18.760Z,10.37
2017-11-07T06:28:21.566Z,10.39
2017-11-07T06:30:25.262Z,10.40
2017-11-07T06:32:28.318Z,10.37
2017-11-07T06:34:31.588Z,10.34
2017-11-07T06:36:35.013Z,10.35
2017-11-07T06:38:38.149Z,10.35
2017-11-07T06:40:42.354Z,10.35
2017-11-07T06:42:46.654Z,10.32
2017-11-07T06:44:51.125Z,10.34
2017-11-07T06:46:53.228Z,10.33
2017-11-07T06:48:56.680Z,10.32
2017-11-07T06:50:59.798Z,10.39
2017-11-07T06:53:03.297Z,10.35
2017-11-07T06:55:06.909Z,10.28
2017-11-07T06:57:11.452Z,10.27
2017-11-07T06:59:15.756Z,10.28
2017-11-07T07:01:19.970Z,10.26
2017-11-07T07:03:24.316Z,10.19
2017-11-07T07:05:30.036Z,10.23
2017-11-07T07:09:47.567Z,10.21
2017-11-07T07:11:50.720Z,10.20
2017-11-07T07:13:54.241Z,10.19
2017-11-07T07:15:57.423Z,10.20
2017-11-07T07:18:00.604Z,10.19
2017-11-07T07:20:03.997Z,10.20
2017-11-07T07:22:06.984Z,10.19
2017-11-07T07:24:10.319Z,10.17
2017-11-07T07:26:14.214Z,10.16
2017-11-07T07:28:18.639Z,10.16
2017-11-07T07:32:37.087Z,10.15
2017-11-07T07:34:38.862Z,10.11
2017-11-07T07:36:44.828Z,10.13
2017-11-07T07:38:48.664Z,10.13
2017-11-07T07:40:51.882Z,10.13
2017-11-07T07:42:56.508Z,10.19
2017-11-07T07:44:58.889Z,10.17
2017-11-07T07:47:00.846Z,10.16
2017-11-07T07:49:02.438Z,10.16
2017-11-07T07:51:04.167Z,10.15
2017-11-07T07:53:06.042Z,10.13
2017-11-07T07:55:07.794Z,10.09
2017-11-07T07:57:09.582Z,10.12
2017-11-07T07:59:11.503Z,10.11
2017-11-07T08:01:13.361Z,10.06
2017-11-07T08:03:15.313Z,10.08
2017-11-07T08:05:17.292Z,10.05
2017-11-07T08:07:19.161Z,10.04
2017-11-07T08:09:20.906Z,10.09
2017-11-07T08:11:23.674Z,10.08
2017-11-07T08:13:25.432Z,10.10
2017-11-07T08:15:30.637Z,10.06
2017-11-07T08:17:32.351Z,10.04
2017-11-07T08:19:34.073Z,10.08
2017-11-07T08:21:36.023Z,10.04
2017-11-07T08:23:37.879Z,10.01
2017-11-07T08:25:39.794Z,10.02
2017-11-07T08:27:41.691Z,10.04
2017-11-07T08:29:43.520Z,10.06
2017-11-07T08:31:45.593Z,10.04
2017-11-07T08:33:47.471Z,10.09
2017-11-07T08:35:49.212Z,10.06
2017-11-07T08:37:50.882Z,10.04
2017-11-07T08:39:52.560Z,10.03
2017-11-07T08:41:54.439Z,10.01
2017-11-07T08:43:58.372Z,10.01
2017-11-07T08:46:01.644Z,10.11
2017-11-07T08:48:04.742Z,10.02
2017-11-07T08:50:07.777Z,9.99
2017-11-07T08:52:11.991Z,10.06
2017-11-07T08:54:16.842Z,10.07
2017-11-07T08:56:20.970Z,10.10
2017-11-07T08:58:26.382Z,10.11
2017-11-07T09:00:28.312Z,10.03
2017-11-07T09:02:30.159Z,10.10
2017-11-07T09:04:31.915Z,10.10
2017-11-07T09:06:33.832Z,10.06
2017-11-07T09:08:35.638Z,10.10
2017-11-07T09:10:37.402Z,10.07
2017-11-07T09:12:39.682Z,10.16
2017-11-07T09:14:41.962Z,10.14
2017-11-07T09:16:45.363Z,10.17
2017-11-07T09:18:47.548Z,10.21
2017-11-07T09:20:49.365Z,10.25
2017-11-07T09:22:51.242Z,10.25
2017-11-07T09:24:53.201Z,10.22
2017-11-07T09:26:56.485Z,10.20
2017-11-07T09:28:58.427Z,10.25
2017-11-07T09:31:00.191Z,10.21
2017-11-07T09:33:02.176Z,10.21
2017-11-07T09:35:05.679Z,10.26
2017-11-07T09:37:10.323Z,10.28
2017-11-07T09:39:15.814Z,10.25
2017-11-07T09:41:20.972Z,10.26
2017-11-07T09:43:24.711Z,10.25
2017-11-07T09:45:26.597Z,10.21
2017-11-07T09:47:28.567Z,10.22
2017-11-07T09:49:30.417Z,10.20
2017-11-07T09:51:32.275Z,10.21
2017-11-07T09:53:34.145Z,10.24
2017-11-07T09:55:36.081Z,10.18
2017-11-07T09:57:37.863Z,10.21
2017-11-07T09:59:39.600Z,10.20
2017-11-07T10:01:41.219Z,10.26
2017-11-07T10:03:42.888Z,10.21
2017-11-07T10:05:44.872Z,10.17
2017-11-07T10:07:46.710Z,10.22
2017-11-07T10:09:48.375Z,10.19
2017-11-07T10:11:50.161Z,10.18
2017-11-07T10:13:52.008Z,10.17
2017-11-07T10:15:53.761Z,10.11
2017-11-07T10:17:55.703Z,10.16
2017-11-07T10:19:57.553Z,10.17
2017-11-07T10:21:59.131Z,10.15
2017-11-07T10:24:01.306Z,10.16
2017-11-07T10:26:03.270Z,10.12
2017-11-07T10:28:05.234Z,10.16
2017-11-07T10:30:07.276Z,10.16
2017-11-07T10:32:09.190Z,10.17
2017-11-07T10:34:11.072Z,10.17
2017-11-07T10:36:12.747Z,10.14
2017-11-07T10:38:14.879Z,10.18
2017-11-07T10:40:16.894Z,10.18
2017-11-07T10:42:18.809Z,10.13
2017-11-07T10:44:20.960Z,10.14
2017-11-07T10:46:25.075Z,10.18
2017-11-07T10:48:27.276Z,10.18
2017-11-07T10:50:29.159Z,10.23
2017-11-07T10:52:30.959Z,10.18
2017-11-07T10:54:32.557Z,10.21
2017-11-07T10:56:34.250Z,10.24
2017-11-07T10:58:35.917Z,10.22
2017-11-07T11:00:38.155Z,10.20
2017-11-07T11:02:40.242Z,10.22
2017-11-07T11:04:43.587Z,10.19
2017-11-07T11:06:48.730Z,10.26
2017-11-07T11:08:53.499Z,10.26
2017-11-07T11:10:59.381Z,10.26
2017-11-07T11:13:05.230Z,10.22
2017-11-07T11:15:10.579Z,10.34
2017-11-07T11:17:12.642Z,10.32
2017-11-07T11:19:14.514Z,10.31
2017-11-07T11:21:16.475Z,10.31
2017-11-07T11:23:18.721Z,10.29
2017-11-07T11:25:20.677Z,10.31
2017-11-07T11:27:22.747Z,10.31
2017-11-07T11:29:24.484Z,10.25
2017-11-07T11:31:29.322Z,10.30
2017-11-07T11:33:31.187Z,10.32
2017-11-07T11:35:33.080Z,10.28
2017-11-07T11:37:37.004Z,10.30
2017-11-07T11:39:40.182Z,10.36
2017-11-07T11:41:43.292Z,10.35
2017-11-07T11:43:46.553Z,10.39
2017-11-07T11:45:48.306Z,10.44
2017-11-07T11:47:50.113Z,10.43
2017-11-07T11:49:52.808Z,10.43
2017-11-07T11:51:54.558Z,10.42
2017-11-07T11:53:56.527Z,10.40
2017-11-07T11:55:58.361Z,10.42
2017-11-07T11:58:00.233Z,10.44
2017-11-07T12:00:02.924Z,10.46
2017-11-07T12:02:04.956Z,10.44
2017-11-07T12:04:08.264Z,10.46
2017-11-07T12:08:14.183Z,10.56
2017-11-07T12:10:19.202Z,10.55
2017-11-07T12:12:21.429Z,10.49
2017-11-07T12:14:23.283Z,10.51
2017-11-07T12:16:25.160Z,10.49
2017-11-07T12:18:27.047Z,10.53
2017-11-07T12:20:29.037Z,10.50
2017-11-07T12:22:31.598Z,10.53
2017-11-07T12:24:33.366Z,10.48
2017-11-07T12:26:35.291Z,10.64
2017-11-07T12:28:37.348Z,10.56
2017-11-07T12:30:39.186Z,10.68
2017-11-07T12:32:41.322Z,10.69
2017-11-07T12:34:43.081Z,10.79
2017-11-07T12:36:45.067Z,10.89
2017-11-07T12:38:46.999Z,10.89
2017-11-07T12:40:49.067Z,10.88
2017-11-07T12:42:51.002Z,10.91
2017-11-07T12:44:52.792Z,10.94
2017-11-07T12:46:54.634Z,11.00
2017-11-07T12:48:56.396Z,10.99
2017-11-07T12:50:58.162Z,10.93
2017-11-07T12:52:59.927Z,10.95
2017-11-07T12:55:01.880Z,10.98
2017-11-07T12:57:03.748Z,11.03
2017-11-07T12:59:05.833Z,11.05
2017-11-07T13:01:08.470Z,11.06
2017-11-07T13:03:10.339Z,11.11
2017-11-07T13:05:12.491Z,11.11
2017-11-07T13:07:15.968Z,11.15
2017-11-07T13:09:20.885Z,11.19
2017-11-07T13:11:24.560Z,11.27
2017-11-07T13:13:27.704Z,11.32
2017-11-07T13:15:33.425Z,11.31
2017-11-07T13:17:35.520Z,11.35
2017-11-07T13:19:39.410Z,11.42
2017-11-07T13:21:42.153Z,11.49
2017-11-07T13:23:43.958Z,11.45
2017-11-07T13:25:46.131Z,11.46
2017-11-07T13:27:47.751Z,11.52
2017-11-07T13:29:51.148Z,11.55
2017-11-07T13:31:55.140Z,11.55
2017-11-07T13:33:58.206Z,11.45
2017-11-07T13:36:01.210Z,11.40
2017-11-07T13:38:04.462Z,11.49
2017-11-07T13:40:07.582Z,11.54
2017-11-07T13:42:10.664Z,11.54
2017-11-07T13:44:13.758Z,11.50
2017-11-07T13:46:18.331Z,11.40
2017-11-07T13:48:21.638Z,11.44
2017-11-07T13:50:24.654Z,11.58
2017-11-07T13:52:28.761Z,11.49
2017-11-07T13:54:32.917Z,11.45
2017-11-07T13:56:37.752Z,11.60
2017-11-07T13:58:43.967Z,11.54
2017-11-07T14:00:49.007Z,11.53
2017-11-07T14:02:54.289Z,11.51
2017-11-07T14:04:58.558Z,11.56
2017-11-07T14:07:03.300Z,11.55
2017-11-07T14:09:09.487Z,11.53
2017-11-07T14:11:15.198Z,11.59
2017-11-07T14:13:18.572Z,11.59
2017-11-07T14:15:22.287Z,11.59
2017-11-07T14:17:25.884Z,11.59
2017-11-07T14:19:31.484Z,11.58
2017-11-07T14:21:34.595Z,11.62
2017-11-07T14:23:37.492Z,11.64
2017-11-07T14:25:40.882Z,11.63
2017-11-07T14:27:45.449Z,11.64
2017-11-07T14:29:47.631Z,11.63
2017-11-07T14:31:49.599Z,11.68
2017-11-07T14:33:51.308Z,11.66
2017-11-07T14:35:53.175Z,11.62
2017-11-07T14:37:55.038Z,11.65
2017-11-07T14:39:56.836Z,11.62
2017-11-07T14:41:58.763Z,11.61
2017-11-07T14:44:00.720Z,11.58
2017-11-07T14:46:02.574Z,11.63
2017-11-07T14:48:05.721Z,11.61
2017-11-07T14:50:08.803Z,11.58
2017-11-07T14:52:12.385Z,11.70
2017-11-07T14:54:15.518Z,11.65
2017-11-07T14:56:17.283Z,11.59
2017-11-07T14:58:21.054Z,11.62
2017-11-07T15:00:24.311Z,11.65
2017-11-07T15:02:26.151Z,11.67
2017-11-07T15:04:27.882Z,11.65
2017-11-07T15:06:29.559Z,11.64
2017-11-07T15:08:31.910Z,11.67
2017-11-07T15:10:38.544Z,11.76
2017-11-07T15:12:40.441Z,11.72
2017-11-07T15:14:43.391Z,11.74
2017-11-07T15:16:47.618Z,11.80
2017-11-07T15:18:52.140Z,11.76
2017-11-07T15:20:56.320Z,11.74
2017-11-07T15:23:00.591Z,11.79
2017-11-07T15:25:06.079Z,11.80
2017-11-07T15:27:12.239Z,11.79
2017-11-07T15:29:17.198Z,11.77
2017-11-07T15:31:19.183Z,11.78
2017-11-07T15:33:23.512Z,11.75
2017-11-07T15:35:27.681Z,11.82
2017-11-07T15:37:29.789Z,11.83
2017-11-07T15:39:32.689Z,11.79
2017-11-07T15:41:34.491Z,11.76
2017-11-07T15:43:36.870Z,11.77
2017-11-07T15:45:40.956Z,11.77
2017-11-07T15:47:44.334Z,11.88
2017-11-07T15:49:47.827Z,11.93
2017-11-07T15:51:51.039Z,11.96
2017-11-07T15:53:55.158Z,12.03
2017-11-07T15:55:57.355Z,11.97
2017-11-07T15:57:59.091Z,12.01
2017-11-07T16:00:01.067Z,11.96
2017-11-07T16:02:03.123Z,11.98
2017-11-07T16:04:05.486Z,11.95
2017-11-07T16:06:07.243Z,11.94
2017-11-07T16:08:09.091Z,11.95
2017-11-07T16:10:10.762Z,11.94
2017-11-07T16:12:12.728Z,12.01
2017-11-07T16:14:14.598Z,11.98
2017-11-07T16:16:16.422Z,11.99
2017-11-07T16:18:18.191Z,11.91
2017-11-07T16:20:20.076Z,11.94
2017-11-07T16:22:22.089Z,11.92
2017-11-07T16:24:23.771Z,11.92
2017-11-07T16:26:27.417Z,11.93
2017-11-07T16:28:30.820Z,11.95
2017-11-07T16:30:33.902Z,11.95
2017-11-07T16:32:38.576Z,11.99
2017-11-07T16:34:42.897Z,12.01
2017-11-07T16:36:45.085Z,12.01
2017-11-07T16:38:48.217Z,11.90
2017-11-07T16:40:50.613Z,11.92
2017-11-07T16:42:52.809Z,11.91
2017-11-07T16:44:55.171Z,11.88
2017-11-07T16:46:57.443Z,11.93
2017-11-07T16:48:59.705Z,11.91
2017-11-07T16:51:01.849Z,11.90
2017-11-07T16:53:04.228Z,11.85
2017-11-07T16:55:06.378Z,11.83
2017-11-07T16:57:08.767Z,11.82
2017-11-07T16:59:11.252Z,11.82
2017-11-07T17:01:14.538Z,11.73
2017-11-07T17:03:16.652Z,11.76
2017-11-07T17:05:19.777Z,11.71
2017-11-07T17:07:21.969Z,11.73
2017-11-07T17:09:24.220Z,11.74
2017-11-07T17:11:26.666Z,11.77
2017-11-07T17:13:28.936Z,11.73
2017-11-07T17:15:30.777Z,11.66
2017-11-07T17:17:32.966Z,11.66
2017-11-07T17:19:37.897Z,11.65
2017-11-07T17:21:40.055Z,11.73
2017-11-07T17:23:41.860Z,11.72
2017-11-07T17:25:43.976Z,11.69
2017-11-07T17:27:46.714Z,11.73
2017-11-07T17:29:48.777Z,11.71
2017-11-07T17:31:51.060Z,11.72
2017-11-07T17:33:53.047Z,11.72
2017-11-07T17:35:55.103Z,11.76
2017-11-07T17:37:57.174Z,11.68
2017-11-07T17:39:59.377Z,11.67
2017-11-07T17:42:01.614Z,11.73
2017-11-07T17:46:11.757Z,11.81
2017-11-07T17:48:15.224Z,11.75
2017-11-07T17:50:18.315Z,11.76
2017-11-07T17:52:21.611Z,11.75
2017-11-07T17:54:24.690Z,11.66
2017-11-07T17:56:26.495Z,11.73
2017-11-07T17:58:28.331Z,11.73
2017-11-07T18:00:31.727Z,11.73
2017-11-07T18:02:35.215Z,11.72
2017-11-07T18:04:40.562Z,11.74
2017-11-07T18:06:45.912Z,11.74
2017-11-07T18:08:51.782Z,11.71
2017-11-07T18:10:53.606Z,11.74
2017-11-07T18:12:55.576Z,11.74
2017-11-07T18:14:57.417Z,11.71
2017-11-07T18:16:59.086Z,11.75
2017-11-07T18:19:01.453Z,11.72
2017-11-07T18:21:03.414Z,11.77
2017-11-07T18:23:06.253Z,11.69
2017-11-07T18:25:09.043Z,11.71
2017-11-07T18:27:13.039Z,11.70
2017-11-07T18:29:16.093Z,11.72
2017-11-07T18:31:19.121Z,11.72
2017-11-07T18:33:22.226Z,11.72
2017-11-07T18:35:26.467Z,11.70
2017-11-07T18:37:31.129Z,11.69
2017-11-07T18:39:33.132Z,11.67
2017-11-07T18:41:34.917Z,11.75
2017-11-07T18:45:42.715Z,11.68
2017-11-07T18:47:44.676Z,11.60
2017-11-07T18:49:46.853Z,11.70
2017-11-07T18:51:48.722Z,11.67
2017-11-07T18:53:50.530Z,11.67
2017-11-07T18:55:52.294Z,11.68
2017-11-07T18:57:53.966Z,11.71
2017-11-07T18:59:55.834Z,11.63
2017-11-07T19:01:57.824Z,11.59
2017-11-07T19:03:59.932Z,11.60
2017-11-07T19:06:02.331Z,11.55
2017-11-07T19:08:04.169Z,11.59
2017-11-07T19:10:05.934Z,11.62
2017-11-07T19:12:07.971Z,11.66
2017-11-07T19:14:09.843Z,11.61
2017-11-07T19:16:11.801Z,11.64
2017-11-07T19:18:13.555Z,11.65
2017-11-07T19:20:15.412Z,11.62
2017-11-07T19:22:17.371Z,11.66
2017-11-07T19:24:19.239Z,11.68
2017-11-07T19:26:21.095Z,11.56
2017-11-07T19:30:26.259Z,11.65
2017-11-07T19:32:28.017Z,11.67
2017-11-07T19:34:29.960Z,11.63
2017-11-07T19:36:31.720Z,11.74
2017-11-07T19:38:33.791Z,11.74
2017-11-07T19:40:35.642Z,11.83
2017-11-07T19:42:37.605Z,11.77
2017-11-07T19:44:39.728Z,11.74
2017-11-07T19:46:41.413Z,11.71
2017-11-07T19:48:43.259Z,11.65
2017-11-07T19:50:45.043Z,11.64
2017-11-07T19:52:46.932Z,11.67
2017-11-07T19:54:48.934Z,11.68
2017-11-07T19:56:50.694Z,11.66
2017-11-07T19:58:52.654Z,11.61
2017-11-07T20:00:54.520Z,11.58
2017-11-07T20:02:56.688Z,11.69
2017-11-07T20:04:58.533Z,11.64
2017-11-07T20:07:00.407Z,11.70
2017-11-07T20:09:02.331Z,11.74
2017-11-07T20:11:04.243Z,11.64
2017-11-07T20:13:06.402Z,11.65
2017-11-07T20:15:08.234Z,11.61
2017-11-07T20:17:10.093Z,11.58
2017-11-07T20:19:12.074Z,11.61
2017-11-07T20:21:13.898Z,11.54
2017-11-07T20:23:15.768Z,11.57
2017-11-07T20:25:17.735Z,11.58
2017-11-07T20:27:19.577Z,11.58
2017-11-07T20:29:21.341Z,11.62
2017-11-07T20:31:24.483Z,11.62
2017-11-07T20:33:28.149Z,11.67
2017-11-07T20:35:31.442Z,11.65
2017-11-07T20:37:33.803Z,11.60
2017-11-07T20:39:35.654Z,11.64
2017-11-07T20:41:40.985Z,11.56
2017-11-07T20:43:42.935Z,11.59
2017-11-07T20:45:44.727Z,11.64
2017-11-07T20:47:47.483Z,11.58
2017-11-07T20:49:49.336Z,11.59
2017-11-07T20:51:51.296Z,11.68
2017-11-07T20:53:53.253Z,11.60
2017-11-07T20:55:55.021Z,11.61
2017-11-07T20:57:56.776Z,11.63
2017-11-07T20:59:58.533Z,11.65
2017-11-07T21:02:00.483Z,11.68
2017-11-07T21:04:02.375Z,11.61
2017-11-07T21:06:04.206Z,11.59
2017-11-07T21:08:06.169Z,11.64
2017-11-07T21:10:08.048Z,11.60
2017-11-07T21:12:09.995Z,11.64
2017-11-07T21:16:25.773Z,11.60
2017-11-07T21:18:27.532Z,11.59
2017-11-07T21:20:29.615Z,11.59
2017-11-07T21:22:31.575Z,11.57
2017-11-07T21:24:33.621Z,11.55
2017-11-07T21:26:35.599Z,11.58
2017-11-07T21:30:44.011Z,11.57
2017-11-07T21:32:45.769Z,11.55
2017-11-07T21:34:47.725Z,11.53
2017-11-07T21:36:49.464Z,11.54
2017-11-07T21:38:51.222Z,11.54
2017-11-07T21:40:52.973Z,11.49
2017-11-07T21:42:54.735Z,11.52
2017-11-07T21:44:56.619Z,11.56
2017-11-07T21:46:58.574Z,11.55
2017-11-07T21:49:02.009Z,11.54
2017-11-07T21:51:06.589Z,11.53
2017-11-07T21:53:10.192Z,11.56
2017-11-07T21:55:14.525Z,11.57
2017-11-07T21:57:18.481Z,11.54
2017-11-07T22:01:38.807Z,11.55
2017-11-07T22:03:40.977Z,11.53
2017-11-07T22:05:43.965Z,11.56
2017-11-07T22:07:45.925Z,11.53
2017-11-07T22:09:47.893Z,11.56
2017-11-07T22:11:50.158Z,11.55
2017-11-07T22:13:52.002Z,11.51
2017-11-07T22:18:00.317Z,11.49
2017-11-07T22:20:02.167Z,11.51
2017-11-07T22:22:03.934Z,11.53
2017-11-07T22:24:05.902Z,11.59
2017-11-07T22:26:07.650Z,11.57
2017-11-07T22:28:09.606Z,11.64
2017-11-07T22:30:11.364Z,11.71
2017-11-07T22:32:13.212Z,11.65
2017-11-07T22:34:15.079Z,11.72
2017-11-07T22:36:16.933Z,11.71
2017-11-07T22:38:18.806Z,11.71
2017-11-07T22:40:20.534Z,11.72
2017-11-07T22:42:22.210Z,11.69
2017-11-07T22:44:24.284Z,11.72
2017-11-07T22:46:26.124Z,11.70
2017-11-07T22:48:27.885Z,11.66
2017-11-07T22:50:29.852Z,11.67
2017-11-07T22:52:31.803Z,11.64
2017-11-07T22:54:33.655Z,11.55
2017-11-07T22:56:35.614Z,11.57
2017-11-07T22:58:37.484Z,11.62
2017-11-07T23:00:39.441Z,11.56
2017-11-07T23:02:41.396Z,11.53
2017-11-07T23:04:43.281Z,11.52
2017-11-07T23:06:45.006Z,11.53
2017-11-07T23:08:46.773Z,11.50
2017-11-07T23:15:35.975Z,11.49
2017-11-07T23:17:37.926Z,11.49
2017-11-07T23:19:39.901Z,11.52
2017-11-07T23:21:42.451Z,11.50
2017-11-07T23:23:47.134Z,11.46
2017-11-07T23:25:48.937Z,11.45
2017-11-07T23:27:50.897Z,11.48
2017-11-07T23:29:52.759Z,11.47
2017-11-07T23:31:54.695Z,11.46
2017-11-07T23:33:56.371Z,11.40
2017-11-07T23:35:58.844Z,11.44
2017-11-07T23:38:00.806Z,11.43
2017-11-07T23:40:02.855Z,11.41
2017-11-07T23:42:04.612Z,11.41
2017-11-07T23:44:06.372Z,11.45
2017-11-07T23:46:08.237Z,11.47
2017-11-07T23:48:10.203Z,11.41
2017-11-07T23:50:12.165Z,11.41
2017-11-07T23:52:14.015Z,11.38
2017-11-07T23:54:15.974Z,11.40
2017-11-07T23:56:17.726Z,11.40
2017-11-07T23:58:19.486Z,11.37
